Rapid City, MI (49676)

1:05 AM EDT on September 16, 2014 (GMT -0400)
Skegemog Pt. | Change Station
CLOSE
Current Station
Personal Weather Station
Location: Williamsburg, MI
Elevation: 620 ft
Nearby Weather Stations

Elev 620 ft 44.81 °N, 85.36 °W | Updated 12 minutes ago

Partly Cloudy
Partly Cloudy
48.2 °F
Feels Like 48 °F
N
0.0
Wind Variable Wind from SE
Gusts 1.0 mph

Today
High -- | Low -- °F
--% Chance of Precip.
Yesterday
High -- | Low -- °F
Precip. -- in
7:21 AM 7:49 PM
Waning Gibbous, 49% visible
Pressure 30.12 in
Visibility 10.0 miles
Clouds Mostly Cloudy 2800 ft
Mostly Cloudy 3300 ft
Overcast 4500 ft
Windchill 48 °F
Dew Point 46 °F
Humidity 92%
Rainfall 0.00 in
Snow Depth Not available.
UV 0 out of 12
Pollen 2.30 out of 12
Ozone Good
PM2.5 Good
Flu Activity Not available.
METAR KACB 160455Z AUTO 00000KT 10SM BKN028 BKN033 OVC045 08/08 A3012 RMK AO2 T00820075

More Conditions Fewer Conditions

Pressure 30.12 in
Visibility 10.0 miles
Clouds Mostly Cloudy 2800 ft
Mostly Cloudy 3300 ft
Overcast 4500 ft
Windchill 48 °F
Dew Point 46 °F
Humidity 92%
Rainfall 0.00 in
Snow Depth Not available.
UV 0 out of 12
Pollen 2.30 out of 12
Ozone Good
PM2.5 Good
Flu Activity Not available.
METAR KACB 160455Z AUTO 00000KT 10SM BKN028 BKN033 OVC045 08/08 A3012 RMK AO2 T00820075

More Conditions Fewer Conditions

Nowcast | as of 1:00 am EDT on September 16, 2014

At 2 am...partly cloudy. Temperature 41. Light winds. At 4 am...partly cloudy. Temperature 41. Light winds. At 6 am...partly cloudy. Temperature 40. Light winds. At 8 am...partly cloudy. Temperature 41. Light winds.

×

10-Day Weather Forecast

Almanac

Astronomy

Sep. 16, 2014 Rise Set
Actual Time 7:21 AM EDT 7:49 PM EDT
Civil Twilight 6:51 AM EDT 8:19 PM EDT
Nautical Twilight 6:16 AM EDT 8:53 PM EDT
Astronomical Twilight 5:40 AM EDT 9:29 PM EDT
Moon 12:19 AM EDT 3:23 PM EDT
Length of Visible Light 13h 27m
Length of Day
12h 28m
Tomorrow will be 3m 5s shorter.
Waning Gibbous, 49% of the Moon is Illuminated
Today
Waning Gibbous
Sep 24
New
Oct 1
First Quarter
Oct 8
Full
Oct 15
Last Quarter

Today's Extremes

State Highs State Lows

Community

WunderPhotos

Upload Photos

1,753,702 photos uploaded!

Nearby

Air Quality

  Air Quality AQ Index Pollutant
Yesterday Good
OZONE
Yesterday Good
PM2.5
Current Good
PM2.5
Current Good
OZONE
Monday Good
OZONE
Monday Good
PM2.5
Tuesday Good
OZONE
Tuesday Good
PM2.5
Wednesday Good
OZONE
Wednesday Good
PM2.5
Thursday Good
OZONE
Thursday Good
PM2.5
Friday Good
OZONE
Friday Good
PM2.5
Saturday Good
OZONE
Saturday Good
PM2.5

Snow Depth

Station Depth Elevation
No new snow has been reported.

Earthquake Activity

City Distance Mag. Time & Date
No recent earthquake activity has been reported nearby.
Minimum magnitude displayed is 2.5.

Coastal Water Temperatures

Place Temperature
Mackinaw City, MI 62.1 °F
Port Inland, MI 61.0 °F

Nearby Weather Stations